Alverda, Pennsylvania
Current Conditions -  °F | °C
As of 8:55 AM on Wednesday 28 Jan 2015 (Local Time) from KIDI Reporting Station
Haze Haze  
Wind Chill: -3°   Ceiling: 700
Heat Index:   Visibility: 2mi
Dew Point:   Wind: 7mph
Humidity: 92%   Direction: 260°W
Pressure: 30.31"   Gusts: NA
Location:  40.63°N, 78.86°W
Report Text: KIDI 281355Z AUTO 26006KT 2SM BR BKN007 OVC012 M13/M14 A3031 RMK A01
Loading
Personal Weather Stations






























Interactive Weather Map New forecast layout! Learn more

10-Day Weather Forecast

Advertisements
Track Severe Weather on mobile